createdAt,value
2019-01-27T00:02:05.980Z,-2.57
2019-01-27T00:04:32.289Z,-2.58
2019-01-27T00:06:58.604Z,-2.58
2019-01-27T00:09:24.912Z,-2.58
2019-01-27T00:11:51.222Z,-2.56
2019-01-27T00:14:17.532Z,-2.57
2019-01-27T00:16:43.837Z,-2.54
2019-01-27T00:19:10.140Z,-2.51
2019-01-27T00:21:36.452Z,-2.50
2019-01-27T00:24:02.760Z,-2.48
2019-01-27T00:26:29.068Z,-2.47
2019-01-27T00:28:55.373Z,-2.46
2019-01-27T00:31:21.714Z,-2.45
2019-01-27T00:33:48.022Z,-2.46
2019-01-27T00:36:14.337Z,-2.46
2019-01-27T00:38:40.629Z,-2.44
2019-01-27T00:41:06.937Z,-2.43
2019-01-27T00:43:33.240Z,-2.41
2019-01-27T00:45:59.549Z,-2.38
2019-01-27T00:48:25.853Z,-2.39
2019-01-27T00:50:52.159Z,-2.36
2019-01-27T00:53:18.470Z,-2.33
2019-01-27T00:55:44.780Z,-2.34
2019-01-27T00:58:11.090Z,-2.32
2019-01-27T01:00:37.404Z,-2.29
2019-01-27T01:03:03.712Z,-2.28
2019-01-27T01:05:30.024Z,-2.28
2019-01-27T01:07:56.327Z,-2.22
2019-01-27T01:10:22.641Z,-2.20
2019-01-27T01:12:48.940Z,-2.16
2019-01-27T01:15:15.253Z,-2.15
2019-01-27T01:17:41.556Z,-2.11
2019-01-27T01:20:07.879Z,-2.11
2019-01-27T01:22:34.179Z,-2.05
2019-01-27T01:25:00.489Z,-2.02
2019-01-27T01:27:26.792Z,-2.00
2019-01-27T01:29:53.108Z,-2.00
2019-01-27T01:32:19.447Z,-1.98
2019-01-27T01:34:45.717Z,-1.97
2019-01-27T01:37:12.027Z,-2.00
2019-01-27T01:39:38.336Z,-2.06
2019-01-27T01:42:04.642Z,-2.12
2019-01-27T01:44:30.952Z,-2.17
2019-01-27T01:46:57.264Z,-2.21
2019-01-27T01:49:23.575Z,-2.23
2019-01-27T01:51:49.886Z,-2.26
2019-01-27T01:54:16.197Z,-2.28
2019-01-27T01:56:42.509Z,-2.31
2019-01-27T01:59:08.816Z,-2.36
2019-01-27T02:01:35.124Z,-2.41
2019-01-27T02:04:01.482Z,-2.43
2019-01-27T02:06:27.785Z,-2.40
2019-01-27T02:08:54.091Z,-2.42
2019-01-27T02:11:20.401Z,-2.45
2019-01-27T02:13:46.708Z,-2.49
2019-01-27T02:16:13.029Z,-2.49
2019-01-27T02:18:39.328Z,-2.50
2019-01-27T02:21:05.638Z,-2.49
2019-01-27T02:23:31.943Z,-2.48
2019-01-27T02:25:58.248Z,-2.48
2019-01-27T02:28:24.553Z,-2.48
2019-01-27T02:30:50.858Z,-2.48
2019-01-27T02:33:17.177Z,-2.44
2019-01-27T02:35:43.496Z,-2.44
2019-01-27T02:38:09.797Z,-2.43
2019-01-27T02:40:36.100Z,-2.46
2019-01-27T02:43:02.422Z,-2.51
2019-01-27T02:45:28.728Z,-2.52
2019-01-27T02:47:55.040Z,-2.51
2019-01-27T02:50:21.346Z,-2.53
2019-01-27T02:52:47.652Z,-2.55
2019-01-27T02:55:13.964Z,-2.57
2019-01-27T02:57:40.271Z,-2.59
2019-01-27T03:00:06.583Z,-2.60
2019-01-27T03:02:32.883Z,-2.57
2019-01-27T03:04:59.191Z,-2.62
2019-01-27T03:07:25.495Z,-2.65
2019-01-27T03:09:51.808Z,-2.67
2019-01-27T03:12:18.118Z,-2.71
2019-01-27T03:14:44.424Z,-2.73
2019-01-27T03:17:10.732Z,-2.74
2019-01-27T03:19:37.040Z,-2.76
2019-01-27T03:22:03.348Z,-2.72
2019-01-27T03:24:29.658Z,-2.73
2019-01-27T03:26:55.966Z,-2.78
2019-01-27T03:29:22.275Z,-2.81
2019-01-27T03:31:48.610Z,-2.76
2019-01-27T03:34:14.915Z,-2.79
2019-01-27T03:36:41.219Z,-2.87
2019-01-27T03:39:07.523Z,-2.86
2019-01-27T03:41:33.828Z,-2.84
2019-01-27T03:44:00.133Z,-2.84
2019-01-27T03:46:26.444Z,-2.89
2019-01-27T03:48:52.743Z,-2.94
2019-01-27T03:51:19.050Z,-2.93
2019-01-27T03:53:45.358Z,-2.97
2019-01-27T03:56:11.668Z,-3.04
2019-01-27T03:58:37.975Z,-3.01
2019-01-27T04:01:04.281Z,-2.94
2019-01-27T04:03:30.596Z,-2.91
2019-01-27T04:05:56.901Z,-3.03
2019-01-27T04:08:23.206Z,-3.07
2019-01-27T04:10:49.512Z,-3.09
2019-01-27T04:13:15.819Z,-3.08
2019-01-27T04:15:42.132Z,-3.06
2019-01-27T04:18:08.437Z,-3.09
2019-01-27T04:20:34.742Z,-3.07
2019-01-27T04:23:01.052Z,-3.18
2019-01-27T04:25:27.363Z,-3.11
2019-01-27T04:27:53.676Z,-3.14
2019-01-27T04:30:20.002Z,-3.16
2019-01-27T04:32:46.310Z,-3.14
2019-01-27T04:35:12.615Z,-3.18
2019-01-27T04:37:38.923Z,-3.24
2019-01-27T04:40:05.223Z,-3.22
2019-01-27T04:42:31.539Z,-3.26
2019-01-27T04:44:57.844Z,-3.30
2019-01-27T04:47:24.160Z,-3.22
2019-01-27T04:49:50.467Z,-3.28
2019-01-27T04:52:16.779Z,-3.22
2019-01-27T04:54:43.106Z,-3.22
2019-01-27T04:57:09.418Z,-3.19
2019-01-27T04:59:35.734Z,-3.23
2019-01-27T05:02:02.047Z,-3.27
2019-01-27T05:04:28.358Z,-3.32
2019-01-27T05:06:54.663Z,-3.28
2019-01-27T05:09:20.975Z,-3.30
2019-01-27T05:11:47.288Z,-3.31
2019-01-27T05:14:13.598Z,-3.26
2019-01-27T05:16:39.904Z,-3.28
2019-01-27T05:19:06.224Z,-3.27
2019-01-27T05:21:34.361Z,-3.28
2019-01-27T05:23:58.926Z,-3.31
2019-01-27T05:26:25.211Z,-3.36
2019-01-27T05:28:51.520Z,-3.53
2019-01-27T05:31:17.829Z,-3.44
2019-01-27T05:33:44.148Z,-3.34
2019-01-27T05:36:10.452Z,-3.37
2019-01-27T05:38:36.762Z,-3.43
2019-01-27T05:41:03.068Z,-3.38
2019-01-27T05:43:29.380Z,-3.35
2019-01-27T05:45:55.689Z,-3.32
2019-01-27T05:48:21.997Z,-3.29
2019-01-27T05:50:48.303Z,-3.45
2019-01-27T05:53:14.650Z,-3.52
2019-01-27T05:55:40.956Z,-3.52
2019-01-27T05:58:07.269Z,-3.50
2019-01-27T06:00:33.626Z,-3.44
2019-01-27T06:02:59.881Z,-3.50
2019-01-27T06:05:26.184Z,-3.60
2019-01-27T06:07:52.490Z,-3.50
2019-01-27T06:10:18.799Z,-3.47
2019-01-27T06:12:45.116Z,-3.46
2019-01-27T06:15:11.489Z,-3.41
2019-01-27T06:17:37.790Z,-3.43
2019-01-27T06:20:04.132Z,-3.45
2019-01-27T06:22:30.440Z,-3.44
2019-01-27T06:24:56.754Z,-3.40
2019-01-27T06:27:23.097Z,-3.38
2019-01-27T06:29:49.407Z,-3.29
2019-01-27T06:32:15.723Z,-3.25
2019-01-27T06:34:42.024Z,-3.25
2019-01-27T06:37:08.337Z,-3.21
2019-01-27T06:39:34.659Z,-3.13
2019-01-27T06:42:00.955Z,-3.04
2019-01-27T06:44:27.262Z,-3.06
2019-01-27T06:46:53.593Z,-3.05
2019-01-27T06:49:19.901Z,-2.85
2019-01-27T06:51:46.203Z,-2.80
2019-01-27T06:54:12.536Z,-2.71
2019-01-27T06:56:38.840Z,-2.60
2019-01-27T06:59:05.153Z,-2.48
2019-01-27T07:01:31.466Z,-2.41
2019-01-27T07:03:57.775Z,-2.30
2019-01-27T07:06:24.081Z,-2.26
2019-01-27T07:08:50.387Z,-2.33
2019-01-27T07:11:16.692Z,-2.37
2019-01-27T07:13:43.019Z,-2.20
2019-01-27T07:16:09.324Z,-2.15
2019-01-27T07:18:35.637Z,-2.23
2019-01-27T07:21:01.946Z,-2.23
2019-01-27T07:23:28.281Z,-2.28
2019-01-27T07:25:54.571Z,-2.23
2019-01-27T07:28:20.894Z,-2.17
2019-01-27T07:30:47.203Z,-2.12
2019-01-27T07:33:13.515Z,-2.21
2019-01-27T07:35:39.825Z,-2.17
2019-01-27T07:38:06.137Z,-1.87
2019-01-27T07:40:32.448Z,-1.18
2019-01-27T07:42:58.758Z,-0.94
2019-01-27T07:45:25.074Z,-0.63
2019-01-27T07:47:51.383Z,-0.39
2019-01-27T07:50:17.695Z,-0.05
2019-01-27T07:52:44.053Z,0.25
2019-01-27T07:55:10.362Z,-0.06
2019-01-27T07:57:36.663Z,0.42
2019-01-27T08:00:02.986Z,0.74
2019-01-27T08:02:29.292Z,0.85
2019-01-27T08:04:55.610Z,1.11
2019-01-27T08:07:21.909Z,1.39
2019-01-27T08:09:49.591Z,1.79
2019-01-27T08:12:15.898Z,1.83
2019-01-27T08:14:42.214Z,1.62
2019-01-27T08:17:08.525Z,2.10
2019-01-27T08:19:34.832Z,1.90
2019-01-27T08:22:01.150Z,2.00
2019-01-27T08:24:27.459Z,2.47
2019-01-27T08:26:53.769Z,2.40
2019-01-27T08:29:20.076Z,2.05
2019-01-27T08:31:46.384Z,2.05
2019-01-27T08:34:12.691Z,2.12
2019-01-27T08:36:38.995Z,2.46
2019-01-27T08:39:05.305Z,3.00
2019-01-27T08:41:31.620Z,3.22
2019-01-27T08:43:57.923Z,3.20
2019-01-27T08:46:24.231Z,2.71
2019-01-27T08:48:50.539Z,2.35
2019-01-27T08:51:16.849Z,2.80
2019-01-27T08:53:43.156Z,2.78
2019-01-27T08:56:09.459Z,2.73
2019-01-27T08:58:35.763Z,3.01
2019-01-27T09:01:02.073Z,3.29
2019-01-27T09:03:28.379Z,3.68
2019-01-27T09:05:54.698Z,3.64
2019-01-27T09:08:21.015Z,4.05
2019-01-27T09:10:47.329Z,4.53
2019-01-27T09:13:13.634Z,4.88
2019-01-27T09:15:39.944Z,5.20
2019-01-27T09:18:06.256Z,4.95
2019-01-27T09:20:32.557Z,4.79
2019-01-27T09:22:58.872Z,4.54
2019-01-27T09:25:25.182Z,4.25
2019-01-27T09:27:51.489Z,3.95
2019-01-27T09:30:17.809Z,4.41
2019-01-27T09:32:44.105Z,4.98
2019-01-27T09:35:10.419Z,4.81
2019-01-27T09:37:36.749Z,5.25
2019-01-27T09:40:03.058Z,5.10
2019-01-27T09:42:29.365Z,5.02
2019-01-27T09:44:55.670Z,4.97
2019-01-27T09:47:21.989Z,4.26
2019-01-27T09:49:48.315Z,3.25
2019-01-27T09:52:14.622Z,2.85
2019-01-27T09:54:40.972Z,2.90
2019-01-27T09:57:07.280Z,2.86
2019-01-27T09:59:33.588Z,3.09
2019-01-27T10:01:59.909Z,3.50
2019-01-27T10:04:26.215Z,3.30
2019-01-27T10:06:52.521Z,2.61
2019-01-27T10:09:18.830Z,2.59
2019-01-27T10:11:45.141Z,2.84
2019-01-27T10:14:11.455Z,3.24
2019-01-27T10:16:37.770Z,3.20
2019-01-27T10:19:04.078Z,2.67
2019-01-27T10:21:30.392Z,3.02
2019-01-27T10:23:56.702Z,3.50
2019-01-27T10:26:23.009Z,3.67
2019-01-27T10:28:49.318Z,3.08
2019-01-27T10:31:15.630Z,3.13
2019-01-27T10:33:41.956Z,3.25
2019-01-27T10:36:08.265Z,3.15
2019-01-27T10:38:34.575Z,3.68
2019-01-27T10:41:00.920Z,3.86
2019-01-27T10:43:27.225Z,4.31
2019-01-27T10:45:53.532Z,4.54
2019-01-27T10:48:19.848Z,5.05
2019-01-27T10:50:46.161Z,4.94
2019-01-27T10:53:12.472Z,5.23
2019-01-27T10:55:38.801Z,5.73
2019-01-27T10:58:05.133Z,5.73
2019-01-27T11:00:31.447Z,6.18
2019-01-27T11:02:57.762Z,6.18
2019-01-27T11:05:24.109Z,5.98
2019-01-27T11:07:50.432Z,6.08
2019-01-27T11:10:16.763Z,6.60
2019-01-27T11:12:43.070Z,6.49
2019-01-27T11:15:09.393Z,7.18
2019-01-27T11:17:35.703Z,7.87
2019-01-27T11:20:04.206Z,8.05
2019-01-27T11:22:28.380Z,8.21
2019-01-27T11:24:54.774Z,8.06
2019-01-27T11:27:21.083Z,7.66
2019-01-27T11:29:47.508Z,7.10
2019-01-27T11:32:13.789Z,6.90
2019-01-27T11:34:40.101Z,7.16
2019-01-27T11:37:06.404Z,7.18
2019-01-27T11:39:32.718Z,7.43
2019-01-27T11:41:59.024Z,8.00
2019-01-27T11:44:25.360Z,7.93
2019-01-27T11:46:51.664Z,8.07
2019-01-27T11:49:17.973Z,8.27
2019-01-27T11:51:44.296Z,8.27
2019-01-27T11:54:10.612Z,8.47
2019-01-27T11:56:36.929Z,8.24
2019-01-27T11:59:03.253Z,7.38
2019-01-27T12:01:31.811Z,7.29
2019-01-27T12:03:58.133Z,7.83
2019-01-27T12:06:24.749Z,7.66
2019-01-27T12:08:51.066Z,7.23
2019-01-27T12:11:17.373Z,6.90
2019-01-27T12:13:43.691Z,7.08
2019-01-27T12:16:09.991Z,7.71
2019-01-27T12:18:36.338Z,7.69
2019-01-27T12:21:02.656Z,8.04
2019-01-27T12:23:28.963Z,7.68
2019-01-27T12:25:55.271Z,7.59
2019-01-27T12:28:21.579Z,7.79
2019-01-27T12:30:47.888Z,7.53
2019-01-27T12:33:14.201Z,7.81
2019-01-27T12:35:40.520Z,8.13
2019-01-27T12:38:06.833Z,7.91
2019-01-27T12:40:33.145Z,7.79
2019-01-27T12:42:59.456Z,8.48
2019-01-27T12:45:25.763Z,9.05
2019-01-27T12:47:52.074Z,9.23
2019-01-27T12:50:18.381Z,9.13
2019-01-27T12:52:44.691Z,9.41
2019-01-27T12:55:11.001Z,9.66
2019-01-27T12:57:37.308Z,9.88
2019-01-27T13:00:03.655Z,9.64
2019-01-27T13:02:29.961Z,9.69
2019-01-27T13:04:56.268Z,9.52
2019-01-27T13:07:22.577Z,9.32
2019-01-27T13:09:48.884Z,9.47
2019-01-27T13:12:15.193Z,10.01
2019-01-27T13:14:41.513Z,10.00
2019-01-27T13:17:07.817Z,9.88
2019-01-27T13:19:34.150Z,9.59
2019-01-27T13:22:00.475Z,9.54
2019-01-27T13:24:26.813Z,9.59
2019-01-27T13:26:53.155Z,9.70
2019-01-27T13:29:19.446Z,9.70
2019-01-27T13:31:45.745Z,9.97
2019-01-27T13:34:12.079Z,10.02
2019-01-27T13:36:38.385Z,9.83
2019-01-27T13:39:04.688Z,9.45
2019-01-27T13:41:30.999Z,9.34
2019-01-27T13:43:57.299Z,9.38
2019-01-27T13:46:23.628Z,9.11
2019-01-27T13:48:49.941Z,9.16
2019-01-27T13:51:16.239Z,9.45
2019-01-27T13:53:42.548Z,9.35
2019-01-27T13:56:08.853Z,8.97
2019-01-27T13:58:35.163Z,8.53
2019-01-27T14:01:01.492Z,7.98
2019-01-27T14:03:27.806Z,7.51
2019-01-27T14:05:54.113Z,7.19
2019-01-27T14:08:20.879Z,7.01
2019-01-27T14:10:47.188Z,6.93
2019-01-27T14:13:15.838Z,6.60
2019-01-27T14:15:42.375Z,6.54
2019-01-27T14:18:08.739Z,6.00
2019-01-27T14:20:35.300Z,5.59
2019-01-27T14:23:01.587Z,5.10
2019-01-27T14:25:27.902Z,4.73
2019-01-27T14:27:54.209Z,4.60
2019-01-27T14:30:20.533Z,4.38
2019-01-27T14:32:46.839Z,4.21
2019-01-27T14:35:13.153Z,4.03
2019-01-27T14:37:39.457Z,3.95
2019-01-27T14:40:05.764Z,3.77
2019-01-27T14:42:32.072Z,3.52
2019-01-27T14:44:58.379Z,3.41
2019-01-27T14:47:24.685Z,3.31
2019-01-27T14:49:50.988Z,3.17
2019-01-27T14:52:17.292Z,3.09
2019-01-27T14:54:43.604Z,2.98
2019-01-27T14:57:09.912Z,2.87
2019-01-27T14:59:36.220Z,2.79
2019-01-27T15:02:02.550Z,2.58
2019-01-27T15:04:28.881Z,2.42
2019-01-27T15:06:55.189Z,2.38
2019-01-27T15:09:21.508Z,2.23
2019-01-27T15:11:47.823Z,2.12
2019-01-27T15:14:14.130Z,2.00
2019-01-27T15:16:40.745Z,1.90
2019-01-27T15:19:07.053Z,1.83
2019-01-27T15:21:33.361Z,1.79
2019-01-27T15:23:59.671Z,1.80
2019-01-27T15:26:25.986Z,1.82
2019-01-27T15:28:52.284Z,1.75
2019-01-27T15:31:18.591Z,1.58
2019-01-27T15:33:44.900Z,1.54
2019-01-27T15:36:11.208Z,1.45
2019-01-27T15:38:37.534Z,1.34
2019-01-27T15:41:03.846Z,1.31
2019-01-27T15:43:30.148Z,1.29
2019-01-27T15:45:56.490Z,1.27
2019-01-27T15:48:22.795Z,1.21
2019-01-27T15:50:49.103Z,1.17
2019-01-27T15:53:15.415Z,1.13
2019-01-27T15:55:41.721Z,1.08
2019-01-27T15:58:08.039Z,1.05
2019-01-27T16:00:34.348Z,1.01
2019-01-27T16:03:00.732Z,0.92
2019-01-27T16:05:27.003Z,0.86
2019-01-27T16:07:53.310Z,0.80
2019-01-27T16:10:19.623Z,0.81
2019-01-27T16:12:45.928Z,0.80
2019-01-27T16:15:12.230Z,0.80
2019-01-27T16:17:38.559Z,0.84
2019-01-27T16:20:07.325Z,0.80
2019-01-27T16:22:33.905Z,0.83
2019-01-27T16:25:00.217Z,0.83
2019-01-27T16:27:26.876Z,0.76
2019-01-27T16:29:53.183Z,0.72
2019-01-27T16:32:19.486Z,0.65
2019-01-27T16:34:45.790Z,0.63
2019-01-27T16:37:12.094Z,0.59
2019-01-27T16:39:38.407Z,0.61
2019-01-27T16:42:04.711Z,0.62
2019-01-27T16:44:31.021Z,0.60
2019-01-27T16:46:57.323Z,0.59
2019-01-27T16:49:23.634Z,0.57
2019-01-27T16:51:49.940Z,0.59
2019-01-27T16:54:16.251Z,0.59
2019-01-27T16:56:42.552Z,0.60
2019-01-27T16:59:08.863Z,0.74
2019-01-27T17:01:38.079Z,0.66
2019-01-27T17:04:04.391Z,0.61
2019-01-27T17:06:30.700Z,0.58
2019-01-27T17:08:57.047Z,0.55
2019-01-27T17:11:23.441Z,0.54
2019-01-27T17:13:49.758Z,0.52
2019-01-27T17:16:16.072Z,0.50
2019-01-27T17:18:42.381Z,0.52
2019-01-27T17:21:08.693Z,0.54
2019-01-27T17:23:35.002Z,0.55
2019-01-27T17:26:01.316Z,0.53
2019-01-27T17:28:27.616Z,0.52
2019-01-27T17:30:53.940Z,0.50
2019-01-27T17:33:20.242Z,0.47
2019-01-27T17:35:46.577Z,0.44
2019-01-27T17:38:12.858Z,0.39
2019-01-27T17:40:39.163Z,0.36
2019-01-27T17:43:05.469Z,0.35
2019-01-27T17:45:31.785Z,0.37
2019-01-27T17:47:58.098Z,0.38
2019-01-27T17:50:24.406Z,0.40
2019-01-27T17:52:50.718Z,0.38
2019-01-27T17:55:17.026Z,0.40
2019-01-27T17:57:43.344Z,0.44
2019-01-27T18:00:09.658Z,0.47
2019-01-27T18:02:35.965Z,0.45
2019-01-27T18:05:02.306Z,0.47
2019-01-27T18:07:28.591Z,0.53
2019-01-27T18:09:54.934Z,0.61
2019-01-27T18:12:21.210Z,0.64
2019-01-27T18:14:47.522Z,0.65
2019-01-27T18:17:13.848Z,0.67
2019-01-27T18:19:40.145Z,0.66
2019-01-27T18:22:06.463Z,0.63
2019-01-27T18:24:32.767Z,0.64
2019-01-27T18:26:59.087Z,0.68
2019-01-27T18:29:25.389Z,0.63
2019-01-27T18:31:51.703Z,0.59
2019-01-27T18:34:18.004Z,0.66
2019-01-27T18:36:44.315Z,0.77
2019-01-27T18:39:10.617Z,0.81
2019-01-27T18:41:36.929Z,0.74
2019-01-27T18:44:03.243Z,0.66
2019-01-27T18:46:29.576Z,0.58
2019-01-27T18:48:55.867Z,0.59
2019-01-27T18:51:22.238Z,0.44
2019-01-27T18:53:48.526Z,0.29
2019-01-27T18:56:14.831Z,0.12
2019-01-27T18:58:41.137Z,0.09
2019-01-27T19:01:07.473Z,0.11
2019-01-27T19:03:33.816Z,0.04
2019-01-27T19:06:00.120Z,0.07
2019-01-27T19:08:26.430Z,0.05
2019-01-27T19:10:52.749Z,0.10
2019-01-27T19:13:19.052Z,0.88
2019-01-27T19:15:45.733Z,1.58
2019-01-27T19:18:12.035Z,2.29
2019-01-27T19:20:38.345Z,2.62
2019-01-27T19:23:07.612Z,2.74
2019-01-27T19:25:33.923Z,2.33
2019-01-27T19:28:00.228Z,2.14
2019-01-27T19:30:26.540Z,2.17
2019-01-27T19:32:55.852Z,2.02
2019-01-27T19:35:22.158Z,1.85
2019-01-27T19:37:48.482Z,1.54
2019-01-27T19:40:14.797Z,1.86
2019-01-27T19:42:43.565Z,1.01
2019-01-27T19:45:09.884Z,0.38
2019-01-27T19:47:36.192Z,0.03
2019-01-27T19:50:02.531Z,-0.13
2019-01-27T19:52:28.839Z,-0.14
2019-01-27T19:54:55.150Z,-0.20
2019-01-27T19:57:21.464Z,-0.25
2019-01-27T19:59:47.776Z,-0.28
2019-01-27T20:02:14.101Z,-0.26
2019-01-27T20:04:40.405Z,-0.31
2019-01-27T20:07:06.838Z,-0.39
2019-01-27T20:09:33.152Z,-0.42
2019-01-27T20:11:59.476Z,-0.42
2019-01-27T20:14:25.782Z,-0.41
2019-01-27T20:16:52.128Z,-0.39
2019-01-27T20:19:18.446Z,-0.52
2019-01-27T20:21:44.754Z,-0.60
2019-01-27T20:24:11.070Z,-0.65
2019-01-27T20:26:37.378Z,-0.64
2019-01-27T20:29:03.690Z,-0.72
2019-01-27T20:31:30.012Z,-0.78
2019-01-27T20:33:56.417Z,-0.87
2019-01-27T20:36:22.818Z,-0.92
2019-01-27T20:38:49.134Z,-0.95
2019-01-27T20:41:15.515Z,-0.92
2019-01-27T20:43:43.874Z,-0.94
2019-01-27T20:46:10.187Z,-1.06
2019-01-27T20:48:36.488Z,-1.06
2019-01-27T20:51:02.805Z,-1.04
2019-01-27T20:53:29.192Z,-0.95
2019-01-27T20:55:55.518Z,-0.91
2019-01-27T20:58:21.871Z,-0.91
2019-01-27T21:00:48.191Z,-1.00
2019-01-27T21:03:14.502Z,-1.00
2019-01-27T21:05:40.807Z,-1.04
2019-01-27T21:08:07.114Z,-0.99
2019-01-27T21:10:33.423Z,-1.05
2019-01-27T21:12:59.742Z,-1.11
2019-01-27T21:15:26.053Z,-1.08
2019-01-27T21:17:52.357Z,-1.10
2019-01-27T21:20:18.671Z,-1.11
2019-01-27T21:22:45.014Z,-1.17
2019-01-27T21:25:11.326Z,-1.17
2019-01-27T21:27:37.642Z,-1.21
2019-01-27T21:30:03.959Z,-1.12
2019-01-27T21:32:30.270Z,-1.11
2019-01-27T21:34:56.590Z,-1.23
2019-01-27T21:37:22.901Z,-1.18
2019-01-27T21:39:49.221Z,-1.15
2019-01-27T21:42:15.523Z,-1.23
2019-01-27T21:44:41.841Z,-1.26
2019-01-27T21:47:08.287Z,-1.25
2019-01-27T21:49:34.638Z,-1.22
2019-01-27T21:52:00.994Z,-1.32
2019-01-27T21:54:27.301Z,-1.26
2019-01-27T21:56:53.658Z,-1.29
2019-01-27T21:59:19.993Z,-1.30
2019-01-27T22:01:46.415Z,-1.37
2019-01-27T22:04:12.756Z,-1.25
2019-01-27T22:06:39.116Z,-1.40
2019-01-27T22:09:05.453Z,-1.52
2019-01-27T22:11:31.765Z,-1.65
2019-01-27T22:13:58.143Z,-1.61
2019-01-27T22:16:24.825Z,-1.54
2019-01-27T22:18:51.213Z,-1.55
2019-01-27T22:21:17.979Z,-1.46
2019-01-27T22:26:19.638Z,-1.56
2019-01-27T22:28:45.949Z,-1.65
2019-01-27T22:31:12.329Z,-1.59
2019-01-27T22:33:38.641Z,-1.26
2019-01-27T22:36:04.974Z,-1.38
2019-01-27T22:38:31.353Z,-1.49
2019-01-27T22:40:57.880Z,-1.42
2019-01-27T22:43:23.996Z,-1.48
2019-01-27T22:45:50.342Z,-1.33
2019-01-27T22:48:16.737Z,-1.41
2019-01-27T22:50:43.049Z,-1.50
2019-01-27T22:53:09.362Z,-1.52
2019-01-27T22:55:35.667Z,-1.42
2019-01-27T22:58:01.978Z,-1.53
2019-01-27T23:00:28.355Z,-1.53
2019-01-27T23:02:54.732Z,-1.54
2019-01-27T23:05:21.039Z,-1.49
2019-01-27T23:07:47.349Z,-1.50
2019-01-27T23:10:13.662Z,-1.46
2019-01-27T23:12:39.972Z,-1.50
2019-01-27T23:15:06.272Z,-1.44
2019-01-27T23:17:32.576Z,-1.33
2019-01-27T23:19:58.884Z,-1.33
2019-01-27T23:22:25.194Z,-1.31
2019-01-27T23:24:51.507Z,-1.29
2019-01-27T23:27:17.816Z,-1.25
2019-01-27T23:29:44.119Z,-1.16
2019-01-27T23:32:10.429Z,-1.05
2019-01-27T23:34:36.767Z,-1.01
2019-01-27T23:37:03.077Z,-1.06
2019-01-27T23:39:29.949Z,-0.99
2019-01-27T23:41:55.703Z,-0.93
2019-01-27T23:44:22.009Z,-0.97
2019-01-27T23:46:48.321Z,-0.98
2019-01-27T23:49:14.633Z,-1.11
2019-01-27T23:51:40.955Z,-1.27
2019-01-27T23:54:07.254Z,-1.36
2019-01-27T23:56:33.561Z,-1.48
2019-01-27T23:58:59.864Z,-1.52
